Time;durP1;ratioP1;P1;durP2;ratioP2;P2;SDS_P1;SDS_P2;PMS_P1;PMS_P2;Temp;Humidity;BMP_temperature;BMP_pressure;BME280_temperature;BME280_humidity;BME280_pressure;Samples;Min_cycle;Max_cycle;Signal;HPM_P1;HPM_P2
2021/10/22 00:00:04;;;;;;;4.93;2.30;;;;;;;7.47;100.00;98377.28;5009972;28;20476;-62
2021/10/22 00:02:29;;;;;;;4.10;2.03;;;;;;;7.43;100.00;98384.09;5002475;28;20034;-62
2021/10/22 00:04:55;;;;;;;4.80;1.83;;;;;;;7.69;100.00;98386.38;5010058;28;20403;-62
2021/10/22 00:07:21;;;;;;;4.20;1.87;;;;;;;7.72;100.00;98399.09;5011365;28;20068;-62
2021/10/22 00:09:47;;;;;;;6.27;3.00;;;;;;;7.79;100.00;98391.34;5008727;28;20057;-62
2021/10/22 00:12:12;;;;;;;3.93;1.50;;;;;;;7.76;100.00;98393.97;5017110;28;20033;-62
2021/10/22 00:14:38;;;;;;;3.10;2.43;;;;;;;7.74;100.00;98382.91;5006866;28;20038;-62
2021/10/22 00:17:03;;;;;;;2.13;1.70;;;;;;;7.70;100.00;98390.63;5008083;28;20026;-62
2021/10/22 00:19:29;;;;;;;2.67;1.50;;;;;;;7.88;100.00;98390.41;5004708;28;20266;-61
2021/10/22 00:21:54;;;;;;;3.93;1.67;;;;;;;7.84;100.00;98391.31;5013740;28;20476;-63
2021/10/22 00:24:19;;;;;;;3.17;1.40;;;;;;;7.69;100.00;98378.72;5012899;28;20470;-63
2021/10/22 00:26:45;;;;;;;2.43;1.27;;;;;;;7.61;100.00;98385.59;5013858;28;20095;-63
2021/10/22 00:29:10;;;;;;;3.27;1.50;;;;;;;7.57;100.00;98371.19;5004999;28;20037;-63
2021/10/22 00:31:36;;;;;;;2.70;1.70;;;;;;;7.63;100.00;98389.00;5003176;28;20022;-63
2021/10/22 00:34:01;;;;;;;4.80;2.07;;;;;;;7.67;100.00;98388.09;5012993;28;20037;-62
2021/10/22 00:36:27;;;;;;;3.67;1.70;;;;;;;7.69;100.00;98389.75;5013189;28;20029;-62
2021/10/22 00:38:52;;;;;;;2.57;1.80;;;;;;;7.69;100.00;98394.88;5005203;28;20108;-63
2021/10/22 00:41:18;;;;;;;4.03;2.90;;;;;;;7.76;100.00;98388.84;5002677;28;20030;-63
2021/10/22 00:43:45;;;;;;;1.83;1.50;;;;;;;7.71;100.00;98402.50;5007423;28;20034;-62
2021/10/22 00:46:11;;;;;;;3.77;1.70;;;;;;;7.63;100.00;98412.81;5008911;28;20034;-62
2021/10/22 00:48:37;;;;;;;4.17;2.30;;;;;;;7.81;100.00;98406.63;5013379;28;20203;-62
2021/10/22 00:51:04;;;;;;;3.17;1.63;;;;;;;7.74;100.00;98410.13;5014821;28;20113;-62
2021/10/22 00:53:29;;;;;;;3.70;1.80;;;;;;;7.64;100.00;98401.72;5011440;28;20033;-62
2021/10/22 00:55:55;;;;;;;5.13;1.77;;;;;;;7.65;100.00;98400.88;5007949;28;20050;-62
2021/10/22 00:58:22;;;;;;;3.87;1.73;;;;;;;7.56;100.00;98406.06;5009906;28;20029;-62
2021/10/22 01:00:48;;;;;;;6.03;2.80;;;;;;;7.70;100.00;98418.69;5007325;28;20029;-62
2021/10/22 01:03:15;;;;;;;5.03;2.60;;;;;;;7.71;100.00;98413.56;5012214;28;20033;-62
2021/10/22 01:05:40;;;;;;;4.40;2.77;;;;;;;7.63;100.00;98410.25;5006565;28;20097;-62
2021/10/22 01:08:08;;;;;;;3.53;2.07;;;;;;;7.60;100.00;98409.41;5001836;28;20121;-62
2021/10/22 01:10:38;;;;;;;3.00;2.10;;;;;;;7.52;100.00;98401.84;5010835;28;20036;-61
2021/10/22 01:13:03;;;;;;;13.90;6.37;;;;;;;7.52;100.00;98403.56;5010141;28;20030;-62
2021/10/22 01:15:29;;;;;;;11.20;4.67;;;;;;;7.50;100.00;98407.84;5006034;28;20385;-62
2021/10/22 01:17:55;;;;;;;10.40;4.00;;;;;;;7.55;100.00;98408.66;5007671;28;20030;-62
2021/10/22 01:20:22;;;;;;;18.20;5.90;;;;;;;7.65;100.00;98410.22;5005492;28;20041;-62
2021/10/22 01:22:53;;;;;;;7.63;2.37;;;;;;;7.72;100.00;98414.41;5012489;28;20029;-62
2021/10/22 01:25:21;;;;;;;4.73;2.40;;;;;;;7.69;100.00;98420.38;5011097;28;20043;-62
2021/10/22 01:27:47;;;;;;;3.80;2.20;;;;;;;7.75;100.00;98425.44;5004814;28;20539;-64
2021/10/22 01:30:16;;;;;;;3.30;1.47;;;;;;;7.77;100.00;98427.94;5014713;28;20030;-62
2021/10/22 01:32:42;;;;;;;2.33;1.40;;;;;;;7.74;100.00;98425.44;5002422;28;20057;-62
2021/10/22 01:35:09;;;;;;;5.90;1.60;;;;;;;7.70;100.00;98422.06;5002817;28;20074;-62
2021/10/22 01:37:36;;;;;;;4.03;1.83;;;;;;;7.64;100.00;98428.94;5006962;28;20029;-62
2021/10/22 01:40:01;;;;;;;2.63;1.77;;;;;;;7.67;100.00;98434.03;5018484;28;20109;-62
2021/10/22 01:42:28;;;;;;;1.70;1.53;;;;;;;7.61;100.00;98442.59;5017297;28;20124;-62
2021/10/22 01:44:53;;;;;;;2.63;1.17;;;;;;;7.64;100.00;98439.13;5005379;28;20030;-62
2021/10/22 01:47:20;;;;;;;1.70;1.23;;;;;;;7.59;100.00;98446.88;5010721;28;20083;-62
2021/10/22 01:49:45;;;;;;;2.47;1.40;;;;;;;7.59;100.00;98441.78;5021601;28;20041;-62
2021/10/22 01:52:11;;;;;;;4.10;2.30;;;;;;;7.49;100.00;98449.50;5013386;28;20022;-61
2021/10/22 01:54:36;;;;;;;2.57;1.63;;;;;;;7.43;100.00;98454.66;5013786;28;20046;-62
2021/10/22 01:57:05;;;;;;;2.83;1.60;;;;;;;7.40;100.00;98460.66;5010791;28;20417;-61
2021/10/22 01:59:30;;;;;;;4.20;2.30;;;;;;;7.39;100.00;98463.19;5011867;28;20041;-63
2021/10/22 02:01:56;;;;;;;3.63;2.00;;;;;;;7.37;100.00;98464.94;5007311;28;20030;-63
2021/10/22 02:04:21;;;;;;;6.00;1.90;;;;;;;7.29;100.00;98465.84;5017279;28;20473;-62
2021/10/22 02:06:47;;;;;;;5.30;2.07;;;;;;;7.23;100.00;98450.59;5011549;28;20461;-60
2021/10/22 02:09:13;;;;;;;2.23;2.03;;;;;;;7.17;100.00;98458.28;5015698;28;20543;-63
2021/10/22 02:11:38;;;;;;;4.53;2.50;;;;;;;7.24;100.00;98461.66;5015245;28;20026;-57
2021/10/22 02:14:04;;;;;;;4.90;2.67;;;;;;;7.25;100.00;98471.84;5009385;28;20030;-60
2021/10/22 02:16:29;;;;;;;6.20;2.80;;;;;;;7.33;100.00;98477.72;5013632;28;20037;-58
2021/10/22 02:18:55;;;;;;;8.10;3.40;;;;;;;7.41;100.00;98441.09;5012952;28;20026;-59
2021/10/22 02:21:20;;;;;;;5.67;4.07;;;;;;;7.50;100.00;98471.63;5007576;28;20023;-61
2021/10/22 02:23:45;;;;;;;6.97;3.80;;;;;;;7.58;100.00;98452.81;5007394;28;20065;-60
2021/10/22 02:26:11;;;;;;;8.20;2.93;;;;;;;7.61;100.00;98450.22;5019033;28;20490;-62
2021/10/22 02:28:36;;;;;;;7.13;2.80;;;;;;;7.69;100.00;98443.34;5007173;28;20960;-62
2021/10/22 02:31:02;;;;;;;4.67;2.67;;;;;;;7.76;100.00;98449.25;5007567;28;20030;-61
2021/10/22 02:33:28;;;;;;;3.97;2.30;;;;;;;7.88;100.00;98445.72;5008516;28;20033;-61
2021/10/22 02:35:53;;;;;;;3.43;1.70;;;;;;;7.97;100.00;98443.91;5011277;28;20030;-62
2021/10/22 02:38:19;;;;;;;3.23;1.90;;;;;;;7.93;100.00;98436.28;5010792;28;20112;-60
2021/10/22 02:40:44;;;;;;;6.77;2.00;;;;;;;7.94;100.00;98450.72;5007608;28;20033;-61
2021/10/22 02:43:10;;;;;;;4.33;1.63;;;;;;;7.86;100.00;98448.25;5006714;28;20476;-61
2021/10/22 02:45:35;;;;;;;4.03;1.90;;;;;;;7.98;100.00;98445.56;5006515;28;20038;-60
2021/10/22 02:48:01;;;;;;;7.50;2.30;;;;;;;7.96;100.00;98439.66;5010898;28;20030;-62
2021/10/22 02:50:26;;;;;;;2.43;1.90;;;;;;;8.00;100.00;98448.13;5007497;28;20479;-62
2021/10/22 02:52:52;;;;;;;4.60;2.27;;;;;;;8.04;100.00;98455.72;5003709;28;20426;-62
2021/10/22 02:55:17;;;;;;;4.30;2.40;;;;;;;8.00;100.00;98459.16;5012235;28;20070;-62
2021/10/22 02:57:44;;;;;;;3.10;2.20;;;;;;;7.99;100.00;98461.72;5008323;28;20022;-61
2021/10/22 03:00:11;;;;;;;3.37;2.43;;;;;;;7.97;100.00;98466.88;5008092;28;20037;-62
2021/10/22 03:02:37;;;;;;;5.20;2.30;;;;;;;7.98;100.00;98465.97;5006862;28;20424;-60
2021/10/22 03:05:03;;;;;;;2.70;1.57;;;;;;;8.03;100.00;98473.59;5011045;28;20034;-62
2021/10/22 03:07:28;;;;;;;2.73;2.17;;;;;;;8.02;100.00;98475.28;5009100;28;20058;-59
2021/10/22 03:09:54;;;;;;;4.53;2.13;;;;;;;8.18;100.00;98468.31;5006236;28;20026;-61
2021/10/22 03:12:19;;;;;;;2.33;1.83;;;;;;;8.24;100.00;98465.69;5006703;28;20454;-62
2021/10/22 03:14:45;;;;;;;7.17;2.40;;;;;;;8.16;100.00;98473.44;5010722;28;20037;-57
2021/10/22 03:17:10;;;;;;;4.40;2.00;;;;;;;8.16;100.00;98475.16;5010466;28;20360;-57
2021/10/22 03:19:35;;;;;;;5.67;2.20;;;;;;;8.13;100.00;98488.81;5004404;28;20041;-57
2021/10/22 03:22:01;;;;;;;3.00;2.10;;;;;;;8.04;100.00;98486.34;5008418;28;20026;-59
2021/10/22 03:24:26;;;;;;;4.90;2.33;;;;;;;7.97;100.00;98487.28;5009176;28;20053;-59
2021/10/22 03:26:52;;;;;;;4.97;2.57;;;;;;;7.92;100.00;98494.16;5005498;28;20025;-59
2021/10/22 03:29:19;;;;;;;5.73;2.70;;;;;;;7.87;100.00;98493.34;5004746;28;20033;-57
2021/10/22 03:31:44;;;;;;;7.33;2.50;;;;;;;8.03;100.00;98483.81;5003966;28;20077;-59
2021/10/22 03:34:10;;;;;;;6.20;2.70;;;;;;;7.91;100.00;98478.84;5005270;28;20027;-59
2021/10/22 03:36:36;;;;;;;3.47;2.10;;;;;;;7.78;100.00;98478.97;5006121;28;20038;-57
2021/10/22 03:39:03;;;;;;;4.20;2.23;;;;;;;7.69;100.00;98483.31;5008361;28;20079;-59
2021/10/22 03:41:29;;;;;;;3.80;2.30;;;;;;;7.59;100.00;98481.72;5016151;28;20341;-59
2021/10/22 03:43:54;;;;;;;5.60;2.83;;;;;;;7.52;100.00;98483.47;5008338;28;20480;-58
2021/10/22 03:46:19;;;;;;;3.43;1.50;;;;;;;7.53;100.00;98477.53;5014657;28;20475;-58
2021/10/22 03:48:45;;;;;;;3.40;1.60;;;;;;;7.46;100.00;98480.16;5012004;28;20354;-59
2021/10/22 03:51:10;;;;;;;2.93;1.63;;;;;;;7.52;100.00;98492.84;5013787;28;20030;-59
2021/10/22 03:53:36;;;;;;;2.73;1.60;;;;;;;7.48;100.00;98497.13;5006646;28;20093;-58
2021/10/22 03:56:01;;;;;;;2.63;1.77;;;;;;;7.46;100.00;98487.81;5003124;28;20129;-59
2021/10/22 03:58:27;;;;;;;4.27;1.67;;;;;;;7.37;100.00;98490.44;5008124;28;20087;-59
2021/10/22 04:00:52;;;;;;;2.23;1.63;;;;;;;7.32;100.00;98493.88;5008571;28;20029;-60
2021/10/22 04:03:17;;;;;;;5.60;2.80;;;;;;;7.52;100.00;98495.38;5016825;28;20038;-58
2021/10/22 04:05:44;;;;;;;7.73;3.03;;;;;;;7.60;100.00;98496.16;5011669;28;20038;-57
2021/10/22 04:08:09;;;;;;;9.00;3.90;;;;;;;7.60;100.00;98503.81;5008127;28;20092;-58
2021/10/22 04:10:35;;;;;;;14.70;4.93;;;;;;;7.71;100.00;98497.78;5012414;28;20025;-57
2021/10/22 04:13:01;;;;;;;10.73;5.30;;;;;;;7.70;100.00;98501.19;5015297;28;20057;-59
2021/10/22 04:15:27;;;;;;;9.20;4.13;;;;;;;7.66;100.00;98502.06;5010475;28;20431;-57
2021/10/22 04:17:52;;;;;;;11.37;5.00;;;;;;;7.60;100.00;98504.66;5012363;28;20037;-58
2021/10/22 04:20:18;;;;;;;12.43;5.30;;;;;;;7.54;100.00;98501.34;5015337;28;20483;-60
2021/10/22 04:22:44;;;;;;;11.10;4.40;;;;;;;7.48;100.00;98502.22;5006598;28;20028;-56
2021/10/22 04:25:09;;;;;;;6.20;3.17;;;;;;;7.40;100.00;98498.91;5006109;28;20498;-58
2021/10/22 04:27:35;;;;;;;5.30;2.40;;;;;;;7.29;100.00;98501.56;5012389;28;20064;-60
2021/10/22 04:30:03;;;;;;;3.43;1.77;;;;;;;7.37;100.00;98505.72;5017223;28;20468;-59
2021/10/22 04:32:28;;;;;;;5.23;2.00;;;;;;;7.40;100.00;98505.69;5009934;28;20556;-57
2021/10/22 04:34:54;;;;;;;3.20;1.77;;;;;;;7.43;100.00;98506.50;5000770;28;20030;-59
2021/10/22 04:42:43;;;;;;;3.60;2.40;;;;;;;7.66;100.00;98508.88;5017756;28;20475;-60
2021/10/22 04:45:10;;;;;;;3.57;1.80;;;;;;;7.64;100.00;98503.78;5010435;28;20288;-57
2021/10/22 04:47:37;;;;;;;5.00;1.90;;;;;;;7.61;100.00;98502.97;5005357;28;20022;-57
2021/10/22 04:50:04;;;;;;;5.87;2.40;;;;;;;7.62;100.00;98508.06;5008920;28;20026;-59
2021/10/22 04:52:30;;;;;;;2.87;2.23;;;;;;;7.62;100.00;98514.88;5009379;28;20113;-58
2021/10/22 04:54:55;;;;;;;6.00;2.43;;;;;;;7.67;100.00;98513.13;5008761;28;20536;-56
2021/10/22 04:57:20;;;;;;;5.80;2.23;;;;;;;7.74;100.00;98517.28;5011641;28;20022;-61
2021/10/22 04:59:46;;;;;;;7.03;3.10;;;;;;;7.77;100.00;98510.44;5006219;28;20365;-57
2021/10/22 05:02:11;;;;;;;4.47;2.37;;;;;;;7.98;100.00;98513.63;4999937;28;20033;-54
2021/10/22 05:04:36;;;;;;;6.73;4.50;;;;;;;8.22;100.00;98515.94;5013480;28;20042;-61
2021/10/22 05:07:02;;;;;;;8.10;3.57;;;;;;;8.37;100.00;98517.50;5015145;28;20026;-57
2021/10/22 05:09:27;;;;;;;6.57;3.20;;;;;;;8.41;100.00;98517.44;5015105;28;20072;-57
2021/10/22 05:11:53;;;;;;;8.20;3.60;;;;;;;8.55;100.00;98524.94;5009750;28;20129;-59
2021/10/22 05:14:19;;;;;;;6.53;3.10;;;;;;;8.69;100.00;98518.78;5006903;28;20044;-57
2021/10/22 05:16:44;;;;;;;4.63;4.23;;;;;;;8.85;100.00;98523.69;5012071;28;20507;-56
2021/10/22 05:19:10;;;;;;;3.53;3.10;;;;;;;8.92;100.00;98515.06;5020424;28;20045;-55
2021/10/22 05:21:35;;;;;;;5.90;2.87;;;;;;;8.98;100.00;98514.97;5012526;28;20512;-59
2021/10/22 05:24:00;;;;;;;7.07;4.53;;;;;;;9.07;100.00;98515.69;5006489;28;20494;-58
2021/10/22 05:26:26;;;;;;;6.40;4.60;;;;;;;9.11;100.00;98517.34;5010533;28;20026;-56
2021/10/22 05:28:51;;;;;;;9.70;3.77;;;;;;;9.13;100.00;98515.59;5013911;28;20029;-58
2021/10/22 05:31:17;;;;;;;5.37;3.33;;;;;;;9.11;100.00;98507.09;5016025;28;20473;-58
2021/10/22 05:33:42;;;;;;;5.70;3.27;;;;;;;9.07;100.00;98509.72;5016678;28;20056;-59
2021/10/22 05:36:08;;;;;;;4.23;2.33;;;;;;;9.01;100.00;98514.94;5011092;28;20026;-58
2021/10/22 05:38:33;;;;;;;3.00;1.97;;;;;;;9.01;100.00;98515.78;5013356;28;20447;-58
2021/10/22 05:40:59;;;;;;;5.53;2.30;;;;;;;9.04;100.00;98525.94;5013738;28;20038;-59
2021/10/22 05:43:24;;;;;;;6.13;2.47;;;;;;;9.11;100.00;98525.00;5014613;28;20160;-59
2021/10/22 05:45:50;;;;;;;6.20;3.40;;;;;;;9.12;100.00;98524.13;5023646;28;20494;-57
2021/10/22 05:48:15;;;;;;;6.90;3.20;;;;;;;9.20;100.00;98536.81;5015516;28;20034;-58
2021/10/22 05:50:41;;;;;;;10.30;3.47;;;;;;;9.25;100.00;98552.09;5012371;28;20026;-58
2021/10/22 05:53:07;;;;;;;4.33;2.53;;;;;;;9.33;100.00;98563.91;5005369;28;20108;-59
2021/10/22 05:55:32;;;;;;;7.47;2.60;;;;;;;9.31;100.00;98554.53;5015279;28;20050;-59
2021/10/22 05:57:58;;;;;;;5.63;2.90;;;;;;;9.36;100.00;98563.84;5013090;28;20153;-59
2021/10/22 06:00:24;;;;;;;7.30;3.97;;;;;;;9.40;100.00;98564.63;5015258;28;20124;-59
2021/10/22 06:02:51;;;;;;;9.20;3.60;;;;;;;9.36;100.00;98571.53;5016556;28;20038;-55
2021/10/22 06:05:16;;;;;;;7.43;3.57;;;;;;;9.35;100.00;98579.22;5011017;28;20523;-57
2021/10/22 06:07:42;;;;;;;6.20;2.83;;;;;;;9.36;100.00;98583.47;5013101;28;20140;-57
2021/10/22 06:10:08;;;;;;;4.07;2.20;;;;;;;9.36;100.00;98591.16;5017490;28;20038;-59
2021/10/22 06:12:34;;;;;;;5.70;2.13;;;;;;;9.30;100.00;98589.50;5016917;28;20034;-57
2021/10/22 06:15:00;;;;;;;3.77;2.53;;;;;;;9.30;100.00;98604.84;5009967;28;20041;-60
2021/10/22 06:17:26;;;;;;;6.20;2.00;;;;;;;9.47;100.00;98600.34;5010044;28;20026;-58
2021/10/22 06:19:55;;;;;;;6.77;2.20;;;;;;;9.46;100.00;98600.38;5009028;28;20692;-58
2021/10/22 06:25:15;;;;;;;6.10;2.40;;;;;;;9.60;100.00;98608.69;4997369;28;20128;-60
2021/10/22 06:27:41;;;;;;;5.13;3.00;;;;;;;9.54;100.00;98608.78;4992990;28;20038;-59
2021/10/22 06:30:06;;;;;;;3.77;2.17;;;;;;;9.57;100.00;98618.97;4988545;28;20404;-57
2021/10/22 06:32:32;;;;;;;4.87;2.10;;;;;;;9.63;100.00;98631.69;4992989;28;20503;-60
2021/10/22 06:34:59;;;;;;;7.70;2.17;;;;;;;9.64;100.00;98626.53;4992806;28;20564;-59
2021/10/22 06:37:24;;;;;;;4.47;2.20;;;;;;;9.64;100.00;98630.78;4993531;28;20034;-57
2021/10/22 06:39:50;;;;;;;2.20;2.00;;;;;;;9.70;100.00;98625.59;4990739;28;20449;-59
2021/10/22 06:42:15;;;;;;;7.75;2.38;;;;;;;9.80;100.00;98631.44;4999261;28;20046;-59
2021/10/22 06:44:41;;;;;;;2.40;1.85;;;;;;;9.78;100.00;98634.00;4990545;28;20042;-59
2021/10/22 06:47:06;;;;;;;5.40;2.27;;;;;;;10.12;100.00;98634.28;4992805;28;20076;-58
2021/10/22 06:49:32;;;;;;;3.13;1.90;;;;;;;10.36;100.00;98644.13;4989973;28;20043;-58
2021/10/22 06:51:57;;;;;;;2.37;1.53;;;;;;;10.64;100.00;98638.50;4997657;28;20554;-57
2021/10/22 06:54:23;;;;;;;9.13;1.67;;;;;;;10.70;100.00;98641.78;4995733;28;20135;-59
2021/10/22 06:56:48;;;;;;;1.38;1.27;;;;;;;10.77;100.00;98645.09;4988334;28;20121;-58
2021/10/22 06:59:13;;;;;;;2.63;1.30;;;;;;;11.03;100.00;98652.28;4989188;28;20639;-58
2021/10/22 07:01:39;;;;;;;2.40;1.20;;;;;;;11.10;100.00;98664.94;5004554;28;20052;-57
2021/10/22 07:04:04;;;;;;;5.32;2.03;;;;;;;11.15;100.00;98659.72;5018936;28;20099;-62
2021/10/22 07:09:14;;;;;;;2.65;1.90;;;;;;;11.35;100.00;98663.53;5013614;28;20087;-58
2021/10/22 07:11:39;;;;;;;3.67;2.17;;;;;;;11.41;100.00;98662.56;5012023;28;20022;-60
2021/10/22 07:14:08;;;;;;;5.65;2.65;;;;;;;11.48;100.00;98650.44;5015730;28;20047;-59
2021/10/22 07:16:33;;;;;;;4.75;2.08;;;;;;;11.60;100.00;98656.13;5014020;28;20083;-58
2021/10/22 07:18:59;;;;;;;5.47;2.50;;;;;;;11.76;100.00;98651.50;5018461;28;20033;-60
2021/10/22 07:21:25;;;;;;;8.45;2.65;;;;;;;11.92;100.00;98655.44;5014749;28;20385;-58
2021/10/22 07:23:51;;;;;;;3.42;2.63;;;;;;;12.07;97.72;98657.63;5002661;28;20038;-59
2021/10/22 07:26:18;;;;;;;6.25;2.20;;;;;;;12.32;96.53;98657.84;5007986;28;20029;-57
2021/10/22 07:28:44;;;;;;;3.47;1.60;;;;;;;12.60;95.43;98663.94;5013732;28;20022;-58
2021/10/22 07:31:11;;;;;;;3.15;1.42;;;;;;;12.87;93.86;98666.66;5013784;28;20029;-54
2021/10/22 07:33:40;;;;;;;5.03;1.30;;;;;;;13.00;89.94;98678.31;5017047;28;20057;-59
2021/10/22 07:36:08;;;;;;;2.20;1.00;;;;;;;13.00;91.10;98674.00;5005115;28;20775;-59
2021/10/22 07:38:34;;;;;;;3.53;1.63;;;;;;;12.94;89.72;98678.50;5011842;28;20054;-59
2021/10/22 07:40:59;;;;;;;1.25;1.10;;;;;;;12.93;88.51;98677.66;5009400;28;20040;-60
2021/10/22 07:43:25;;;;;;;2.88;1.25;;;;;;;12.95;89.54;98687.88;5016561;28;20343;-60
2021/10/22 07:45:51;;;;;;;2.53;1.42;;;;;;;13.09;87.09;98678.06;5007495;28;20041;-56
2021/10/22 07:48:16;;;;;;;1.85;1.15;;;;;;;13.16;88.71;98677.84;5011879;28;20030;-57
2021/10/22 07:50:42;;;;;;;2.13;1.02;;;;;;;13.42;86.95;98679.69;5005114;28;20064;-61
2021/10/22 07:53:07;;;;;;;1.50;1.08;;;;;;;13.52;85.04;98672.53;5002493;28;20075;-60
2021/10/22 07:55:35;;;;;;;1.83;1.20;;;;;;;13.72;81.38;98672.75;5008436;28;20049;-57
2021/10/22 07:58:01;;;;;;;1.45;1.40;;;;;;;13.69;79.68;98655.66;5005617;28;20030;-60
2021/10/22 08:00:26;;;;;;;1.15;0.82;;;;;;;13.88;79.35;98662.81;5004367;28;20096;-59
2021/10/22 08:02:52;;;;;;;3.95;1.17;;;;;;;13.98;78.59;98652.16;5000784;28;20030;-60
2021/10/22 08:05:19;;;;;;;2.33;1.15;;;;;;;14.10;78.91;98666.38;5006908;28;20087;-60
2021/10/22 08:07:44;;;;;;;2.42;1.63;;;;;;;13.95;76.31;98661.72;5016161;28;20030;-59
2021/10/22 08:10:10;;;;;;;4.00;1.58;;;;;;;14.14;77.14;98667.97;5012525;28;20036;-60
2021/10/22 08:12:36;;;;;;;1.10;1.00;;;;;;;14.25;75.67;98676.22;5006710;28;20080;-59
2021/10/22 08:15:03;;;;;;;2.20;1.23;;;;;;;14.30;75.33;98668.31;5002624;28;20123;-57
2021/10/22 08:17:29;;;;;;;2.25;1.25;;;;;;;14.26;75.12;98657.25;5014414;28;20039;-57
2021/10/22 08:22:32;;;;;;;1.63;0.85;;;;;;;14.40;75.33;98659.41;5009726;28;20077;-56
2021/10/22 08:25:03;;;;;;;2.13;1.20;;;;;;;14.62;73.53;98658.63;5006503;28;20564;-58
2021/10/22 08:27:31;;;;;;;1.55;1.20;;;;;;;14.42;70.65;98663.63;5004804;28;20042;-60
2021/10/22 08:29:57;;;;;;;4.70;1.40;;;;;;;14.47;71.15;98664.28;5011925;28;20048;-58
2021/10/22 08:32:23;;;;;;;2.88;1.10;;;;;;;14.52;70.49;98667.56;5017764;28;20402;-59
2021/10/22 08:34:48;;;;;;;3.70;1.10;;;;;;;14.45;70.15;98665.25;5010314;28;20041;-59
2021/10/22 08:37:14;;;;;;;2.45;1.48;;;;;;;14.49;71.71;98664.25;5009717;28;20498;-59
2021/10/22 08:39:45;;;;;;;2.65;1.23;;;;;;;14.52;72.07;98662.41;5010111;28;20100;-61
2021/10/22 08:42:11;;;;;;;1.98;1.10;;;;;;;14.67;68.95;98662.78;5003489;28;20088;-61
2021/10/22 08:44:41;;;;;;;1.92;1.45;;;;;;;14.54;68.46;98668.38;5005775;28;20052;-58
2021/10/22 08:47:06;;;;;;;3.08;1.70;;;;;;;14.67;69.18;98668.78;5012723;28;20112;-57
2021/10/22 08:49:33;;;;;;;3.70;1.80;;;;;;;14.82;67.51;98663.06;5014559;28;20529;-56
2021/10/22 08:51:59;;;;;;;1.40;1.30;;;;;;;14.78;66.09;98663.22;5015909;28;20088;-60
2021/10/22 08:54:26;;;;;;;1.10;1.10;;;;;;;15.04;66.76;98669.16;5006965;28;20108;-58
2021/10/22 08:56:51;;;;;;;2.03;1.42;;;;;;;15.06;64.08;98671.69;5009496;28;20442;-60
2021/10/22 08:59:17;;;;;;;1.48;0.95;;;;;;;15.29;62.67;98670.81;5020698;28;20033;-60
2021/10/22 09:02:14;;;;;;;3.63;1.30;;;;;;;15.56;64.44;98675.00;5013328;28;20031;-60
2021/10/22 09:04:42;;;;;;;1.77;1.30;;;;;;;15.75;63.17;98678.53;5013727;28;20038;-59
2021/10/22 09:07:08;;;;;;;3.42;2.35;;;;;;;15.82;62.33;98680.00;5011901;28;20097;-60
2021/10/22 09:09:34;;;;;;;3.17;1.92;;;;;;;15.87;59.81;98679.84;5024980;28;20076;-60
2021/10/22 09:12:00;;;;;;;2.20;1.45;;;;;;;15.99;58.67;98679.34;5014454;28;20121;-61
2021/10/22 09:14:28;;;;;;;4.25;2.58;;;;;;;15.92;60.56;98683.06;5014638;28;20034;-60
2021/10/22 09:16:54;;;;;;;3.97;2.20;;;;;;;16.09;60.03;98678.03;5013558;28;20132;-59
2021/10/22 09:19:36;;;;;;;2.95;1.67;;;;;;;16.46;60.74;98683.38;5013088;28;20033;-60
2021/10/22 09:22:28;;;;;;;3.53;1.65;;;;;;;16.70;58.84;98691.06;5005703;28;20036;-61
2021/10/22 09:24:56;;;;;;;1.50;1.40;;;;;;;17.06;56.53;98689.47;5018572;28;20112;-61
2021/10/22 09:27:35;;;;;;;2.00;1.90;;;;;;;17.25;56.20;98692.94;5008953;28;20080;-60
2021/10/22 09:30:02;;;;;;;3.58;2.00;;;;;;;17.24;57.84;98687.81;5011769;28;20029;-60
2021/10/22 09:32:29;;;;;;;3.65;2.40;;;;;;;17.54;56.94;98688.16;5010536;28;20025;-60
2021/10/22 09:34:55;;;;;;;4.72;2.63;;;;;;;17.44;57.93;98697.28;5009187;28;20042;-60
2021/10/22 09:37:20;;;;;;;9.30;3.15;;;;;;;17.35;58.93;98696.78;5012083;28;20064;-59
2021/10/22 09:39:46;;;;;;;6.70;2.60;;;;;;;17.34;58.75;98704.63;5016978;28;20030;-58
2021/10/22 09:42:15;;;;;;;4.13;2.72;;;;;;;17.14;59.18;98707.28;5016886;28;20040;-60
2021/10/22 09:44:43;;;;;;;5.30;2.05;;;;;;;17.18;58.91;98704.50;5008205;28;20070;-59
2021/10/22 09:47:08;;;;;;;5.97;1.92;;;;;;;16.67;61.58;98709.34;5011679;28;20096;-58
2021/10/22 09:49:43;;;;;;;4.72;2.20;;;;;;;16.88;59.71;98706.66;5011579;28;20481;-60
2021/10/22 09:52:18;;;;;;;12.27;2.15;;;;;;;17.06;58.09;98714.56;5021177;28;20073;-59
2021/10/22 09:54:46;;;;;;;7.03;2.08;;;;;;;17.29;57.91;98717.78;5015252;28;20050;-59
2021/10/22 09:57:15;;;;;;;2.75;2.05;;;;;;;17.58;57.34;98713.91;5005395;28;20038;-58
2021/10/22 09:59:42;;;;;;;6.70;2.45;;;;;;;17.70;56.06;98720.28;5007747;28;20034;-57
2021/10/22 10:02:09;;;;;;;3.28;2.17;;;;;;;18.00;55.63;98723.19;5019215;28;20034;-60
2021/10/22 10:04:35;;;;;;;3.92;1.88;;;;;;;18.25;54.38;98710.72;5012300;28;20068;-60
2021/10/22 10:07:03;;;;;;;4.93;2.35;;;;;;;18.47;54.80;98720.91;5012836;28;20033;-60
2021/10/22 10:09:29;;;;;;;4.00;2.00;;;;;;;18.74;53.05;98719.56;5010157;28;20034;-60
2021/10/22 10:12:01;;;;;;;2.70;1.80;;;;;;;18.58;53.56;98716.06;5010200;28;20033;-59
2021/10/22 10:14:27;;;;;;;6.32;1.98;;;;;;;18.78;52.01;98715.88;5006203;28;20037;-60
2021/10/22 10:16:54;;;;;;;7.97;3.50;;;;;;;18.99;51.04;98716.53;5016831;28;20026;-59
2021/10/22 10:19:23;;;;;;;2.53;1.55;;;;;;;18.96;50.54;98717.56;5013181;28;20388;-60
2021/10/22 10:22:03;;;;;;;7.63;2.15;;;;;;;19.00;50.31;98707.84;5011931;28;20377;-59
2021/10/22 10:24:31;;;;;;;4.40;2.22;;;;;;;18.77;50.34;98716.81;5000714;28;20034;-59
2021/10/22 10:27:05;;;;;;;4.68;2.03;;;;;;;18.62;50.74;98715.84;5005632;28;20030;-57
2021/10/22 10:29:34;;;;;;;3.42;2.05;;;;;;;18.77;50.24;98701.22;5009164;28;20063;-60
2021/10/22 10:32:08;;;;;;;4.05;1.98;;;;;;;19.04;50.59;98704.16;5013209;28;20040;-59
2021/10/22 10:34:35;;;;;;;3.38;1.70;;;;;;;19.18;50.23;98705.09;5006057;28;20161;-59
2021/10/22 10:37:04;;;;;;;5.10;1.90;;;;;;;19.13;50.77;98714.94;5009695;28;20085;-59
2021/10/22 10:39:42;;;;;;;3.67;2.30;;;;;;;19.31;49.89;98714.88;5007538;28;20040;-61
2021/10/22 10:42:34;;;;;;;3.30;2.40;;;;;;;19.15;49.99;98714.81;5026488;28;20103;-60
2021/10/22 10:45:26;;;;;;;4.18;2.45;;;;;;;19.18;49.07;98704.25;4983480;28;20524;-61
2021/10/22 10:48:19;;;;;;;2.80;1.70;;;;;;;19.17;49.10;98706.03;4982717;28;20049;-61
2021/10/22 10:51:03;;;;;;;3.05;1.80;;;;;;;19.17;49.03;98694.81;4987324;28;20042;-60
2021/10/22 10:53:31;;;;;;;3.65;1.77;;;;;;;19.36;49.55;98689.44;4984312;28;20042;-62
2021/10/22 10:55:56;;;;;;;4.63;1.95;;;;;;;18.98;50.22;98692.31;4107817;28;25504838;-58
2021/10/22 10:58:23;;;;;;;4.55;2.05;;;;;;;19.18;50.38;98696.47;4987561;28;20042;-59
2021/10/22 11:00:50;;;;;;;5.68;1.80;;;;;;;19.14;48.99;98698.38;4986083;28;20122;-60
2021/10/22 11:03:26;;;;;;;4.72;1.67;;;;;;;18.68;49.54;98692.13;4984486;28;20104;-58
2021/10/22 11:05:55;;;;;;;3.28;2.58;;;;;;;18.74;49.05;98692.75;4990844;28;20042;-59
2021/10/22 11:08:20;;;;;;;2.25;2.08;;;;;;;18.65;49.40;98678.47;4989058;28;20073;-60
2021/10/22 11:11:00;;;;;;;3.20;1.73;;;;;;;18.90;48.80;98683.25;4986832;28;20069;-60
2021/10/22 11:13:52;;;;;;;3.53;1.77;;;;;;;18.74;49.94;98672.81;4984956;28;20423;-60
2021/10/22 11:16:38;;;;;;;2.22;1.90;;;;;;;18.59;50.08;98674.41;4988854;28;20054;-59
2021/10/22 11:19:05;;;;;;;2.78;2.25;;;;;;;18.46;50.48;98667.31;4985618;28;20034;-60
2021/10/22 11:21:40;;;;;;;6.15;1.88;;;;;;;18.77;49.87;98667.44;4988594;28;20045;-60
2021/10/22 11:24:08;;;;;;;2.10;1.90;;;;;;;18.80;49.60;98658.69;5007644;28;20423;-58
2021/10/22 11:26:35;;;;;;;2.05;1.88;;;;;;;19.13;48.94;98659.50;5006387;28;20037;-60
2021/10/22 11:29:16;;;;;;;3.78;2.00;;;;;;;19.24;48.99;98651.13;5008557;28;20181;-60
2021/10/22 11:31:46;;;;;;;3.45;2.20;;;;;;;19.32;49.47;98652.38;5004112;28;20613;-61
2021/10/22 11:34:15;;;;;;;4.55;2.15;;;;;;;19.31;49.50;98653.28;5006819;28;20017;-60
2021/10/22 11:36:47;;;;;;;4.82;3.13;;;;;;;19.24;49.67;98653.72;5008943;28;20064;-61
2021/10/22 11:39:23;;;;;;;5.57;2.30;;;;;;;19.31;49.17;98653.28;5007487;28;20026;-61
2021/10/22 11:42:11;;;;;;;3.15;2.40;;;;;;;19.55;49.19;98658.97;5004602;28;20041;-61
2021/10/22 11:44:38;;;;;;;3.13;2.00;;;;;;;19.17;49.45;98648.88;5007229;28;20133;-61